sensor_id;sensor_type;location;lat;lon;timestamp;P1;durP1;ratioP1;P2;durP2;ratioP2
58553;SDS011;48119;53.218;6.576;2022-08-21T00:01:41;4.97;;;2.30;;
58553;SDS011;48119;53.218;6.576;2022-08-21T00:04:10;5.72;;;2.70;;
58553;SDS011;48119;53.218;6.576;2022-08-21T00:06:36;7.90;;;3.25;;
58553;SDS011;48119;53.218;6.576;2022-08-21T00:09:03;5.30;;;2.13;;
58553;SDS011;48119;53.218;6.576;2022-08-21T00:11:30;8.98;;;2.85;;
58553;SDS011;48119;53.218;6.576;2022-08-21T00:14:03;6.95;;;3.42;;
58553;SDS011;48119;53.218;6.576;2022-08-21T00:16:32;4.40;;;2.25;;
58553;SDS011;48119;53.218;6.576;2022-08-21T00:18:58;6.80;;;2.90;;
58553;SDS011;48119;53.218;6.576;2022-08-21T00:21:27;9.68;;;3.08;;
58553;SDS011;48119;53.218;6.576;2022-08-21T00:23:53;6.60;;;2.72;;
58553;SDS011;48119;53.218;6.576;2022-08-21T00:26:19;4.13;;;2.75;;
58553;SDS011;48119;53.218;6.576;2022-08-21T00:28:46;5.50;;;2.50;;
58553;SDS011;48119;53.218;6.576;2022-08-21T00:31:14;7.10;;;3.05;;
58553;SDS011;48119;53.218;6.576;2022-08-21T00:33:47;8.15;;;3.25;;
58553;SDS011;48119;53.218;6.576;2022-08-21T00:36:14;7.53;;;2.72;;
58553;SDS011;48119;53.218;6.576;2022-08-21T00:38:41;5.88;;;2.90;;
58553;SDS011;48119;53.218;6.576;2022-08-21T00:41:08;6.50;;;3.13;;
58553;SDS011;48119;53.218;6.576;2022-08-21T00:43:36;4.40;;;2.33;;
58553;SDS011;48119;53.218;6.576;2022-08-21T00:46:04;9.68;;;3.75;;
58553;SDS011;48119;53.218;6.576;2022-08-21T00:48:31;6.03;;;3.22;;
58553;SDS011;48119;53.218;6.576;2022-08-21T00:51:05;9.50;;;2.95;;
58553;SDS011;48119;53.218;6.576;2022-08-21T00:53:40;10.85;;;2.95;;
58553;SDS011;48119;53.218;6.576;2022-08-21T00:56:16;5.15;;;2.72;;
58553;SDS011;48119;53.218;6.576;2022-08-21T00:58:43;11.32;;;2.88;;
58553;SDS011;48119;53.218;6.576;2022-08-21T01:01:13;8.88;;;3.42;;
58553;SDS011;48119;53.218;6.576;2022-08-21T01:03:40;7.05;;;3.15;;
58553;SDS011;48119;53.218;6.576;2022-08-21T01:06:06;6.18;;;2.75;;
58553;SDS011;48119;53.218;6.576;2022-08-21T01:08:35;6.55;;;2.28;;
58553;SDS011;48119;53.218;6.576;2022-08-21T01:11:01;6.85;;;2.85;;
58553;SDS011;48119;53.218;6.576;2022-08-21T01:13:35;9.80;;;3.53;;
58553;SDS011;48119;53.218;6.576;2022-08-21T01:16:12;7.10;;;4.00;;
58553;SDS011;48119;53.218;6.576;2022-08-21T01:18:42;6.25;;;2.97;;
58553;SDS011;48119;53.218;6.576;2022-08-21T01:23:42;7.55;;;3.00;;
58553;SDS011;48119;53.218;6.576;2022-08-21T01:26:17;9.00;;;3.78;;
58553;SDS011;48119;53.218;6.576;2022-08-21T01:28:59;6.43;;;2.75;;
58553;SDS011;48119;53.218;6.576;2022-08-21T01:31:36;7.90;;;3.13;;
58553;SDS011;48119;53.218;6.576;2022-08-21T01:34:02;5.97;;;3.08;;
58553;SDS011;48119;53.218;6.576;2022-08-21T01:36:34;5.90;;;3.28;;
58553;SDS011;48119;53.218;6.576;2022-08-21T01:39:00;6.57;;;2.42;;
58553;SDS011;48119;53.218;6.576;2022-08-21T01:41:28;7.88;;;3.15;;
58553;SDS011;48119;53.218;6.576;2022-08-21T01:43:54;8.32;;;3.33;;
58553;SDS011;48119;53.218;6.576;2022-08-21T01:46:25;7.45;;;3.35;;
58553;SDS011;48119;53.218;6.576;2022-08-21T01:48:51;8.35;;;2.75;;
58553;SDS011;48119;53.218;6.576;2022-08-21T01:51:20;6.88;;;3.00;;
58553;SDS011;48119;53.218;6.576;2022-08-21T01:53:52;5.72;;;3.10;;
58553;SDS011;48119;53.218;6.576;2022-08-21T01:56:24;6.38;;;3.45;;
58553;SDS011;48119;53.218;6.576;2022-08-21T01:58:51;9.98;;;3.10;;
58553;SDS011;48119;53.218;6.576;2022-08-21T02:01:24;5.78;;;3.35;;
58553;SDS011;48119;53.218;6.576;2022-08-21T02:03:51;6.28;;;3.30;;
58553;SDS011;48119;53.218;6.576;2022-08-21T02:06:24;6.15;;;2.75;;
58553;SDS011;48119;53.218;6.576;2022-08-21T02:08:51;7.55;;;3.40;;
58553;SDS011;48119;53.218;6.576;2022-08-21T02:11:18;7.55;;;3.50;;
58553;SDS011;48119;53.218;6.576;2022-08-21T02:13:45;8.27;;;3.13;;
58553;SDS011;48119;53.218;6.576;2022-08-21T02:16:19;10.05;;;3.65;;
58553;SDS011;48119;53.218;6.576;2022-08-21T02:18:51;8.63;;;3.78;;
58553;SDS011;48119;53.218;6.576;2022-08-21T02:21:22;10.25;;;3.45;;
58553;SDS011;48119;53.218;6.576;2022-08-21T02:23:57;6.25;;;3.10;;
58553;SDS011;48119;53.218;6.576;2022-08-21T02:26:23;6.10;;;3.17;;
58553;SDS011;48119;53.218;6.576;2022-08-21T02:28:55;8.15;;;3.78;;
58553;SDS011;48119;53.218;6.576;2022-08-21T02:31:26;6.80;;;3.83;;
58553;SDS011;48119;53.218;6.576;2022-08-21T02:33:53;11.02;;;3.45;;
58553;SDS011;48119;53.218;6.576;2022-08-21T02:36:20;7.38;;;3.35;;
58553;SDS011;48119;53.218;6.576;2022-08-21T02:38:52;9.27;;;4.00;;
58553;SDS011;48119;53.218;6.576;2022-08-21T02:41:19;6.88;;;3.13;;
58553;SDS011;48119;53.218;6.576;2022-08-21T02:43:52;8.00;;;3.50;;
58553;SDS011;48119;53.218;6.576;2022-08-21T02:46:20;6.93;;;3.60;;
58553;SDS011;48119;53.218;6.576;2022-08-21T02:48:46;8.35;;;3.80;;
58553;SDS011;48119;53.218;6.576;2022-08-21T02:51:15;4.68;;;3.50;;
58553;SDS011;48119;53.218;6.576;2022-08-21T02:53:51;8.57;;;3.55;;
58553;SDS011;48119;53.218;6.576;2022-08-21T02:56:18;9.13;;;4.20;;
58553;SDS011;48119;53.218;6.576;2022-08-21T02:58:50;5.28;;;2.88;;
58553;SDS011;48119;53.218;6.576;2022-08-21T03:01:17;8.75;;;3.60;;
58553;SDS011;48119;53.218;6.576;2022-08-21T03:03:45;9.68;;;4.15;;
58553;SDS011;48119;53.218;6.576;2022-08-21T03:06:15;8.10;;;3.40;;
58553;SDS011;48119;53.218;6.576;2022-08-21T03:08:42;9.20;;;3.53;;
58553;SDS011;48119;53.218;6.576;2022-08-21T03:11:10;7.00;;;2.97;;
58553;SDS011;48119;53.218;6.576;2022-08-21T03:13:37;6.18;;;3.78;;
58553;SDS011;48119;53.218;6.576;2022-08-21T03:16:04;6.05;;;3.63;;
58553;SDS011;48119;53.218;6.576;2022-08-21T03:18:31;6.15;;;2.95;;
58553;SDS011;48119;53.218;6.576;2022-08-21T03:20:57;10.10;;;3.28;;
58553;SDS011;48119;53.218;6.576;2022-08-21T03:23:23;7.63;;;3.00;;
58553;SDS011;48119;53.218;6.576;2022-08-21T03:25:48;6.93;;;2.92;;
58553;SDS011;48119;53.218;6.576;2022-08-21T03:28:17;10.35;;;3.17;;
58553;SDS011;48119;53.218;6.576;2022-08-21T03:30:45;6.53;;;2.97;;
58553;SDS011;48119;53.218;6.576;2022-08-21T03:33:13;8.65;;;3.95;;
58553;SDS011;48119;53.218;6.576;2022-08-21T03:35:39;6.43;;;2.83;;
58553;SDS011;48119;53.218;6.576;2022-08-21T03:38:14;8.70;;;3.40;;
58553;SDS011;48119;53.218;6.576;2022-08-21T03:40:42;5.28;;;2.72;;
58553;SDS011;48119;53.218;6.576;2022-08-21T03:43:08;10.05;;;3.10;;
58553;SDS011;48119;53.218;6.576;2022-08-21T03:45:34;14.57;;;3.28;;
58553;SDS011;48119;53.218;6.576;2022-08-21T03:48:02;7.20;;;3.55;;
58553;SDS011;48119;53.218;6.576;2022-08-21T03:50:31;6.93;;;2.97;;
58553;SDS011;48119;53.218;6.576;2022-08-21T03:52:59;5.25;;;2.65;;
58553;SDS011;48119;53.218;6.576;2022-08-21T03:55:25;7.45;;;3.10;;
58553;SDS011;48119;53.218;6.576;2022-08-21T03:57:52;8.10;;;3.67;;
58553;SDS011;48119;53.218;6.576;2022-08-21T04:00:18;5.95;;;3.15;;
58553;SDS011;48119;53.218;6.576;2022-08-21T04:02:45;7.18;;;3.72;;
58553;SDS011;48119;53.218;6.576;2022-08-21T04:05:12;6.63;;;3.67;;
58553;SDS011;48119;53.218;6.576;2022-08-21T04:07:38;8.45;;;3.95;;
58553;SDS011;48119;53.218;6.576;2022-08-21T04:10:06;7.18;;;3.67;;
58553;SDS011;48119;53.218;6.576;2022-08-21T04:12:36;10.50;;;3.92;;
58553;SDS011;48119;53.218;6.576;2022-08-21T04:15:03;7.30;;;3.42;;
58553;SDS011;48119;53.218;6.576;2022-08-21T04:17:32;6.30;;;3.08;;
58553;SDS011;48119;53.218;6.576;2022-08-21T04:19:58;11.80;;;3.90;;
58553;SDS011;48119;53.218;6.576;2022-08-21T04:22:23;6.68;;;3.47;;
58553;SDS011;48119;53.218;6.576;2022-08-21T04:24:49;7.90;;;4.22;;
58553;SDS011;48119;53.218;6.576;2022-08-21T04:27:15;8.45;;;3.28;;
58553;SDS011;48119;53.218;6.576;2022-08-21T04:29:41;6.05;;;2.90;;
58553;SDS011;48119;53.218;6.576;2022-08-21T04:32:06;7.57;;;3.60;;
58553;SDS011;48119;53.218;6.576;2022-08-21T04:34:32;10.27;;;4.03;;
58553;SDS011;48119;53.218;6.576;2022-08-21T04:36:59;9.40;;;3.90;;
58553;SDS011;48119;53.218;6.576;2022-08-21T04:39:26;7.95;;;3.38;;
58553;SDS011;48119;53.218;6.576;2022-08-21T04:41:52;8.80;;;4.43;;
58553;SDS011;48119;53.218;6.576;2022-08-21T04:44:20;12.23;;;3.88;;
58553;SDS011;48119;53.218;6.576;2022-08-21T04:46:51;9.27;;;4.10;;
58553;SDS011;48119;53.218;6.576;2022-08-21T04:49:18;4.22;;;3.08;;
58553;SDS011;48119;53.218;6.576;2022-08-21T04:51:44;6.95;;;3.05;;
58553;SDS011;48119;53.218;6.576;2022-08-21T04:54:14;9.63;;;3.95;;
58553;SDS011;48119;53.218;6.576;2022-08-21T04:56:45;8.90;;;3.85;;
58553;SDS011;48119;53.218;6.576;2022-08-21T04:59:33;12.35;;;4.07;;
58553;SDS011;48119;53.218;6.576;2022-08-21T05:02:09;5.85;;;3.05;;
58553;SDS011;48119;53.218;6.576;2022-08-21T05:04:36;8.07;;;3.70;;
58553;SDS011;48119;53.218;6.576;2022-08-21T05:07:12;8.15;;;3.25;;
58553;SDS011;48119;53.218;6.576;2022-08-21T05:09:46;5.85;;;3.78;;
58553;SDS011;48119;53.218;6.576;2022-08-21T05:12:12;9.20;;;3.45;;
58553;SDS011;48119;53.218;6.576;2022-08-21T05:14:38;11.15;;;4.40;;
58553;SDS011;48119;53.218;6.576;2022-08-21T05:17:04;7.50;;;3.50;;
58553;SDS011;48119;53.218;6.576;2022-08-21T05:19:31;9.27;;;3.95;;
58553;SDS011;48119;53.218;6.576;2022-08-21T05:21:57;7.53;;;3.50;;
58553;SDS011;48119;53.218;6.576;2022-08-21T05:24:24;8.13;;;3.00;;
58553;SDS011;48119;53.218;6.576;2022-08-21T05:26:51;10.70;;;3.63;;
58553;SDS011;48119;53.218;6.576;2022-08-21T05:29:19;9.90;;;3.40;;
58553;SDS011;48119;53.218;6.576;2022-08-21T05:31:46;8.30;;;3.40;;
58553;SDS011;48119;53.218;6.576;2022-08-21T05:34:13;9.75;;;3.72;;
58553;SDS011;48119;53.218;6.576;2022-08-21T05:36:40;8.00;;;3.35;;
58553;SDS011;48119;53.218;6.576;2022-08-21T05:39:10;5.63;;;3.30;;
58553;SDS011;48119;53.218;6.576;2022-08-21T05:41:36;8.57;;;3.83;;
58553;SDS011;48119;53.218;6.576;2022-08-21T05:44:08;8.63;;;3.92;;
58553;SDS011;48119;53.218;6.576;2022-08-21T05:46:42;13.38;;;3.72;;
58553;SDS011;48119;53.218;6.576;2022-08-21T05:49:12;8.75;;;3.58;;
58553;SDS011;48119;53.218;6.576;2022-08-21T05:51:39;7.38;;;3.65;;
58553;SDS011;48119;53.218;6.576;2022-08-21T05:54:06;6.53;;;3.65;;
58553;SDS011;48119;53.218;6.576;2022-08-21T05:56:34;10.25;;;3.72;;
58553;SDS011;48119;53.218;6.576;2022-08-21T05:59:05;7.30;;;3.67;;
58553;SDS011;48119;53.218;6.576;2022-08-21T06:01:31;6.15;;;3.20;;
58553;SDS011;48119;53.218;6.576;2022-08-21T06:03:57;8.30;;;3.38;;
58553;SDS011;48119;53.218;6.576;2022-08-21T06:06:24;7.82;;;3.28;;
58553;SDS011;48119;53.218;6.576;2022-08-21T06:08:49;7.65;;;3.60;;
58553;SDS011;48119;53.218;6.576;2022-08-21T06:11:15;10.85;;;3.50;;
58553;SDS011;48119;53.218;6.576;2022-08-21T06:13:45;9.60;;;3.70;;
58553;SDS011;48119;53.218;6.576;2022-08-21T06:16:18;8.73;;;3.25;;
58553;SDS011;48119;53.218;6.576;2022-08-21T06:18:48;7.22;;;3.78;;
58553;SDS011;48119;53.218;6.576;2022-08-21T06:21:29;8.93;;;3.67;;
58553;SDS011;48119;53.218;6.576;2022-08-21T06:23:57;7.30;;;3.17;;
58553;SDS011;48119;53.218;6.576;2022-08-21T06:26:23;10.43;;;3.92;;
58553;SDS011;48119;53.218;6.576;2022-08-21T06:28:51;9.40;;;3.20;;
58553;SDS011;48119;53.218;6.576;2022-08-21T06:31:18;10.52;;;3.85;;
58553;SDS011;48119;53.218;6.576;2022-08-21T06:33:49;9.23;;;3.33;;
58553;SDS011;48119;53.218;6.576;2022-08-21T06:36:18;7.35;;;3.10;;
58553;SDS011;48119;53.218;6.576;2022-08-21T06:38:51;8.82;;;3.10;;
58553;SDS011;48119;53.218;6.576;2022-08-21T06:41:19;9.18;;;3.03;;
58553;SDS011;48119;53.218;6.576;2022-08-21T06:43:53;9.32;;;3.58;;
58553;SDS011;48119;53.218;6.576;2022-08-21T06:46:20;11.63;;;4.28;;
58553;SDS011;48119;53.218;6.576;2022-08-21T06:48:49;7.80;;;3.35;;
58553;SDS011;48119;53.218;6.576;2022-08-21T06:51:16;7.28;;;3.05;;
58553;SDS011;48119;53.218;6.576;2022-08-21T06:53:53;10.15;;;3.42;;
58553;SDS011;48119;53.218;6.576;2022-08-21T06:56:20;12.55;;;3.13;;
58553;SDS011;48119;53.218;6.576;2022-08-21T06:58:46;7.13;;;3.28;;
58553;SDS011;48119;53.218;6.576;2022-08-21T07:01:12;13.77;;;4.45;;
58553;SDS011;48119;53.218;6.576;2022-08-21T07:03:40;8.23;;;3.15;;
58553;SDS011;48119;53.218;6.576;2022-08-21T07:06:16;8.57;;;3.22;;
58553;SDS011;48119;53.218;6.576;2022-08-21T07:08:42;8.88;;;3.10;;
58553;SDS011;48119;53.218;6.576;2022-08-21T07:11:14;8.57;;;3.38;;
58553;SDS011;48119;53.218;6.576;2022-08-21T07:16:12;8.10;;;2.90;;
58553;SDS011;48119;53.218;6.576;2022-08-21T07:18:40;14.40;;;3.53;;
58553;SDS011;48119;53.218;6.576;2022-08-21T07:21:07;10.73;;;3.08;;
58553;SDS011;48119;53.218;6.576;2022-08-21T07:23:40;11.15;;;3.38;;
58553;SDS011;48119;53.218;6.576;2022-08-21T07:26:12;7.85;;;2.85;;
58553;SDS011;48119;53.218;6.576;2022-08-21T07:28:39;8.75;;;2.75;;
58553;SDS011;48119;53.218;6.576;2022-08-21T07:31:06;10.38;;;2.75;;
58553;SDS011;48119;53.218;6.576;2022-08-21T07:33:44;8.20;;;2.60;;
58553;SDS011;48119;53.218;6.576;2022-08-21T07:36:12;6.72;;;2.88;;
58553;SDS011;48119;53.218;6.576;2022-08-21T07:38:42;5.90;;;2.70;;
58553;SDS011;48119;53.218;6.576;2022-08-21T07:41:13;9.65;;;3.03;;
58553;SDS011;48119;53.218;6.576;2022-08-21T07:43:49;10.55;;;2.38;;
58553;SDS011;48119;53.218;6.576;2022-08-21T07:46:22;8.60;;;3.03;;
58553;SDS011;48119;53.218;6.576;2022-08-21T07:48:50;8.35;;;2.42;;
58553;SDS011;48119;53.218;6.576;2022-08-21T07:51:20;7.00;;;2.63;;
58553;SDS011;48119;53.218;6.576;2022-08-21T07:53:57;7.15;;;2.13;;
58553;SDS011;48119;53.218;6.576;2022-08-21T07:56:26;11.93;;;2.63;;
58553;SDS011;48119;53.218;6.576;2022-08-21T07:59:01;10.00;;;2.20;;
58553;SDS011;48119;53.218;6.576;2022-08-21T08:01:28;7.55;;;2.15;;
58553;SDS011;48119;53.218;6.576;2022-08-21T08:03:55;9.45;;;2.28;;
58553;SDS011;48119;53.218;6.576;2022-08-21T08:06:36;8.77;;;2.65;;
58553;SDS011;48119;53.218;6.576;2022-08-21T08:09:03;7.57;;;2.42;;
58553;SDS011;48119;53.218;6.576;2022-08-21T08:11:30;8.52;;;2.30;;
58553;SDS011;48119;53.218;6.576;2022-08-21T08:13:56;6.00;;;2.33;;
58553;SDS011;48119;53.218;6.576;2022-08-21T08:16:28;7.70;;;2.42;;
58553;SDS011;48119;53.218;6.576;2022-08-21T08:18:54;6.63;;;2.28;;
58553;SDS011;48119;53.218;6.576;2022-08-21T08:21:20;5.70;;;2.53;;
58553;SDS011;48119;53.218;6.576;2022-08-21T08:23:47;6.57;;;2.28;;
58553;SDS011;48119;53.218;6.576;2022-08-21T08:26:14;8.68;;;2.70;;
58553;SDS011;48119;53.218;6.576;2022-08-21T08:28:40;9.52;;;2.55;;
58553;SDS011;48119;53.218;6.576;2022-08-21T08:31:07;6.20;;;2.45;;
58553;SDS011;48119;53.218;6.576;2022-08-21T08:33:34;10.57;;;2.90;;
58553;SDS011;48119;53.218;6.576;2022-08-21T08:36:03;10.00;;;2.15;;
58553;SDS011;48119;53.218;6.576;2022-08-21T08:38:29;8.00;;;2.10;;
58553;SDS011;48119;53.218;6.576;2022-08-21T08:41:29;7.65;;;2.20;;
58553;SDS011;48119;53.218;6.576;2022-08-21T08:43:53;6.75;;;2.40;;
58553;SDS011;48119;53.218;6.576;2022-08-21T08:46:26;8.02;;;2.42;;
58553;SDS011;48119;53.218;6.576;2022-08-21T08:54:50;8.20;;;2.72;;
58553;SDS011;48119;53.218;6.576;2022-08-21T08:57:28;8.98;;;2.78;;
58553;SDS011;48119;53.218;6.576;2022-08-21T08:59:56;7.80;;;2.47;;
58553;SDS011;48119;53.218;6.576;2022-08-21T09:02:25;14.20;;;3.42;;
58553;SDS011;48119;53.218;6.576;2022-08-21T09:04:52;8.25;;;2.65;;
58553;SDS011;48119;53.218;6.576;2022-08-21T09:10:30;8.10;;;2.88;;
58553;SDS011;48119;53.218;6.576;2022-08-21T09:15:52;11.90;;;3.63;;
58553;SDS011;48119;53.218;6.576;2022-08-21T09:21:16;14.05;;;3.55;;
58553;SDS011;48119;53.218;6.576;2022-08-21T09:26:26;12.70;;;2.95;;
58553;SDS011;48119;53.218;6.576;2022-08-21T09:29:08;10.45;;;2.63;;
58553;SDS011;48119;53.218;6.576;2022-08-21T09:31:36;10.70;;;2.83;;
58553;SDS011;48119;53.218;6.576;2022-08-21T09:34:07;8.27;;;2.47;;
58553;SDS011;48119;53.218;6.576;2022-08-21T09:36:42;11.00;;;3.08;;
58553;SDS011;48119;53.218;6.576;2022-08-21T09:39:11;13.43;;;3.50;;
58553;SDS011;48119;53.218;6.576;2022-08-21T09:41:39;6.95;;;2.85;;
58553;SDS011;48119;53.218;6.576;2022-08-21T09:44:06;7.15;;;2.67;;
58553;SDS011;48119;53.218;6.576;2022-08-21T09:46:33;10.55;;;2.67;;
58553;SDS011;48119;53.218;6.576;2022-08-21T09:49:01;8.18;;;3.00;;
58553;SDS011;48119;53.218;6.576;2022-08-21T09:51:32;9.50;;;2.47;;
58553;SDS011;48119;53.218;6.576;2022-08-21T09:59:34;11.32;;;3.00;;
58553;SDS011;48119;53.218;6.576;2022-08-21T10:02:07;9.10;;;3.53;;
58553;SDS011;48119;53.218;6.576;2022-08-21T10:05:03;10.20;;;2.85;;
58553;SDS011;48119;53.218;6.576;2022-08-21T10:07:48;7.78;;;2.65;;
58553;SDS011;48119;53.218;6.576;2022-08-21T10:10:19;9.80;;;2.28;;
58553;SDS011;48119;53.218;6.576;2022-08-21T10:40:48;6.95;;;2.65;;
58553;SDS011;48119;53.218;6.576;2022-08-21T10:43:21;5.50;;;2.22;;
58553;SDS011;48119;53.218;6.576;2022-08-21T10:46:07;4.75;;;2.72;;
58553;SDS011;48119;53.218;6.576;2022-08-21T10:57:02;7.75;;;2.47;;
58553;SDS011;48119;53.218;6.576;2022-08-21T10:59:38;8.70;;;2.60;;
58553;SDS011;48119;53.218;6.576;2022-08-21T11:02:44;13.13;;;3.10;;
58553;SDS011;48119;53.218;6.576;2022-08-21T11:07:53;5.60;;;2.80;;
58553;SDS011;48119;53.218;6.576;2022-08-21T11:10:26;4.55;;;2.33;;
58553;SDS011;48119;53.218;6.576;2022-08-21T11:12:56;6.47;;;2.47;;
58553;SDS011;48119;53.218;6.576;2022-08-21T11:15:39;8.85;;;2.40;;
58553;SDS011;48119;53.218;6.576;2022-08-21T11:24:38;6.28;;;2.70;;
58553;SDS011;48119;53.218;6.576;2022-08-21T11:27:17;8.40;;;2.60;;
58553;SDS011;48119;53.218;6.576;2022-08-21T11:29:59;6.23;;;2.80;;
58553;SDS011;48119;53.218;6.576;2022-08-21T11:49:37;8.82;;;2.47;;
58553;SDS011;48119;53.218;6.576;2022-08-21T12:02:53;7.22;;;2.45;;
58553;SDS011;48119;53.218;6.576;2022-08-21T12:05:32;9.30;;;3.03;;
58553;SDS011;48119;53.218;6.576;2022-08-21T12:10:45;8.02;;;2.95;;
58553;SDS011;48119;53.218;6.576;2022-08-21T12:13:32;8.57;;;3.17;;
58553;SDS011;48119;53.218;6.576;2022-08-21T12:16:09;7.53;;;3.03;;
58553;SDS011;48119;53.218;6.576;2022-08-21T12:18:40;10.05;;;2.75;;
58553;SDS011;48119;53.218;6.576;2022-08-21T12:21:23;7.65;;;2.40;;
58553;SDS011;48119;53.218;6.576;2022-08-21T12:24:05;9.00;;;2.00;;
58553;SDS011;48119;53.218;6.576;2022-08-21T12:32:27;8.85;;;3.13;;
58553;SDS011;48119;53.218;6.576;2022-08-21T12:34:58;4.90;;;2.45;;
58553;SDS011;48119;53.218;6.576;2022-08-21T12:37:52;7.60;;;2.17;;
58553;SDS011;48119;53.218;6.576;2022-08-21T12:40:53;4.47;;;2.20;;
58553;SDS011;48119;53.218;6.576;2022-08-21T12:43:33;4.72;;;2.40;;
58553;SDS011;48119;53.218;6.576;2022-08-21T12:46:01;4.72;;;2.00;;
58553;SDS011;48119;53.218;6.576;2022-08-21T12:48:44;6.60;;;1.90;;
58553;SDS011;48119;53.218;6.576;2022-08-21T12:51:32;8.40;;;2.20;;
58553;SDS011;48119;53.218;6.576;2022-08-21T12:54:21;6.72;;;2.20;;
58553;SDS011;48119;53.218;6.576;2022-08-21T12:56:56;5.80;;;2.10;;
58553;SDS011;48119;53.218;6.576;2022-08-21T12:59:42;7.75;;;2.10;;
58553;SDS011;48119;53.218;6.576;2022-08-21T13:02:15;4.28;;;2.53;;
58553;SDS011;48119;53.218;6.576;2022-08-21T13:04:45;6.07;;;2.25;;
58553;SDS011;48119;53.218;6.576;2022-08-21T13:07:13;4.13;;;2.00;;
58553;SDS011;48119;53.218;6.576;2022-08-21T13:09:49;7.10;;;2.05;;
58553;SDS011;48119;53.218;6.576;2022-08-21T13:12:30;6.32;;;1.80;;
58553;SDS011;48119;53.218;6.576;2022-08-21T13:15:00;4.70;;;1.75;;
58553;SDS011;48119;53.218;6.576;2022-08-21T13:17:30;9.80;;;2.75;;
58553;SDS011;48119;53.218;6.576;2022-08-21T13:20:02;6.32;;;2.25;;
58553;SDS011;48119;53.218;6.576;2022-08-21T13:22:42;5.88;;;2.38;;
58553;SDS011;48119;53.218;6.576;2022-08-21T13:25:14;7.13;;;2.00;;
58553;SDS011;48119;53.218;6.576;2022-08-21T13:27:56;4.97;;;2.50;;
58553;SDS011;48119;53.218;6.576;2022-08-21T13:30:28;5.93;;;2.75;;
58553;SDS011;48119;53.218;6.576;2022-08-21T13:32:59;5.57;;;2.38;;
58553;SDS011;48119;53.218;6.576;2022-08-21T13:38:05;6.65;;;2.60;;
58553;SDS011;48119;53.218;6.576;2022-08-21T13:40:49;5.70;;;2.08;;
58553;SDS011;48119;53.218;6.576;2022-08-21T13:43:30;9.65;;;3.08;;
58553;SDS011;48119;53.218;6.576;2022-08-21T13:46:07;9.82;;;3.08;;
58553;SDS011;48119;53.218;6.576;2022-08-21T13:48:37;5.75;;;2.65;;
58553;SDS011;48119;53.218;6.576;2022-08-21T13:51:10;3.58;;;2.03;;
58553;SDS011;48119;53.218;6.576;2022-08-21T13:56:06;4.00;;;2.00;;
58553;SDS011;48119;53.218;6.576;2022-08-21T13:58:51;7.35;;;2.28;;
58553;SDS011;48119;53.218;6.576;2022-08-21T14:01:33;6.18;;;2.22;;
58553;SDS011;48119;53.218;6.576;2022-08-21T14:04:14;3.40;;;1.92;;
58553;SDS011;48119;53.218;6.576;2022-08-21T14:06:47;6.97;;;3.05;;
58553;SDS011;48119;53.218;6.576;2022-08-21T14:11:53;6.65;;;2.22;;
58553;SDS011;48119;53.218;6.576;2022-08-21T14:14:22;4.95;;;2.63;;
58553;SDS011;48119;53.218;6.576;2022-08-21T14:17:03;6.57;;;2.35;;
58553;SDS011;48119;53.218;6.576;2022-08-21T14:25:09;7.30;;;2.58;;
58553;SDS011;48119;53.218;6.576;2022-08-21T14:30:47;6.13;;;2.92;;
58553;SDS011;48119;53.218;6.576;2022-08-21T14:33:18;6.03;;;3.05;;
58553;SDS011;48119;53.218;6.576;2022-08-21T14:35:59;7.80;;;2.15;;
58553;SDS011;48119;53.218;6.576;2022-08-21T14:38:27;7.50;;;2.80;;
58553;SDS011;48119;53.218;6.576;2022-08-21T14:41:03;3.97;;;2.45;;
58553;SDS011;48119;53.218;6.576;2022-08-21T14:43:44;7.63;;;2.33;;
58553;SDS011;48119;53.218;6.576;2022-08-21T14:46:15;7.57;;;1.90;;
58553;SDS011;48119;53.218;6.576;2022-08-21T14:48:57;5.40;;;2.20;;
58553;SDS011;48119;53.218;6.576;2022-08-21T14:51:24;8.32;;;2.30;;
58553;SDS011;48119;53.218;6.576;2022-08-21T14:53:50;7.45;;;2.20;;
58553;SDS011;48119;53.218;6.576;2022-08-21T14:56:16;4.78;;;2.35;;
58553;SDS011;48119;53.218;6.576;2022-08-21T14:58:47;7.63;;;3.65;;
58553;SDS011;48119;53.218;6.576;2022-08-21T15:01:15;4.10;;;2.05;;
58553;SDS011;48119;53.218;6.576;2022-08-21T15:03:55;6.15;;;2.55;;
58553;SDS011;48119;53.218;6.576;2022-08-21T15:06:22;4.00;;;1.50;;
58553;SDS011;48119;53.218;6.576;2022-08-21T15:08:48;5.70;;;2.33;;
58553;SDS011;48119;53.218;6.576;2022-08-21T15:11:18;5.88;;;2.55;;
58553;SDS011;48119;53.218;6.576;2022-08-21T15:13:46;6.18;;;3.67;;
58553;SDS011;48119;53.218;6.576;2022-08-21T15:16:15;7.30;;;2.60;;
58553;SDS011;48119;53.218;6.576;2022-08-21T15:18:44;6.38;;;2.45;;
58553;SDS011;48119;53.218;6.576;2022-08-21T15:21:10;8.18;;;2.53;;
58553;SDS011;48119;53.218;6.576;2022-08-21T15:23:36;4.82;;;2.30;;
58553;SDS011;48119;53.218;6.576;2022-08-21T15:26:08;6.50;;;2.35;;
58553;SDS011;48119;53.218;6.576;2022-08-21T15:28:35;8.20;;;2.70;;
58553;SDS011;48119;53.218;6.576;2022-08-21T15:31:09;8.02;;;2.33;;
58553;SDS011;48119;53.218;6.576;2022-08-21T15:33:37;6.93;;;2.10;;
58553;SDS011;48119;53.218;6.576;2022-08-21T15:36:04;13.68;;;2.55;;
58553;SDS011;48119;53.218;6.576;2022-08-21T15:38:33;5.72;;;2.58;;
58553;SDS011;48119;53.218;6.576;2022-08-21T15:40:59;4.82;;;2.00;;
58553;SDS011;48119;53.218;6.576;2022-08-21T15:43:34;9.85;;;3.05;;
58553;SDS011;48119;53.218;6.576;2022-08-21T15:46:08;7.05;;;2.30;;
58553;SDS011;48119;53.218;6.576;2022-08-21T15:48:36;7.43;;;1.95;;
58553;SDS011;48119;53.218;6.576;2022-08-21T15:51:04;7.65;;;3.70;;
58553;SDS011;48119;53.218;6.576;2022-08-21T15:53:35;5.28;;;2.85;;
58553;SDS011;48119;53.218;6.576;2022-08-21T15:56:27;6.88;;;2.15;;
58553;SDS011;48119;53.218;6.576;2022-08-21T15:59:12;6.38;;;2.55;;
58553;SDS011;48119;53.218;6.576;2022-08-21T16:01:42;8.70;;;2.80;;
58553;SDS011;48119;53.218;6.576;2022-08-21T16:04:17;6.70;;;2.58;;
58553;SDS011;48119;53.218;6.576;2022-08-21T16:06:48;6.95;;;2.05;;
58553;SDS011;48119;53.218;6.576;2022-08-21T16:09:19;6.55;;;2.17;;
58553;SDS011;48119;53.218;6.576;2022-08-21T16:11:46;8.05;;;2.80;;
58553;SDS011;48119;53.218;6.576;2022-08-21T16:14:15;7.80;;;3.22;;
58553;SDS011;48119;53.218;6.576;2022-08-21T16:16:42;4.82;;;2.17;;
58553;SDS011;48119;53.218;6.576;2022-08-21T16:19:10;10.35;;;2.75;;
58553;SDS011;48119;53.218;6.576;2022-08-21T16:21:40;10.05;;;2.88;;
58553;SDS011;48119;53.218;6.576;2022-08-21T16:24:09;8.90;;;2.95;;
58553;SDS011;48119;53.218;6.576;2022-08-21T16:26:35;6.10;;;2.45;;
58553;SDS011;48119;53.218;6.576;2022-08-21T16:29:03;4.88;;;2.47;;
58553;SDS011;48119;53.218;6.576;2022-08-21T16:31:31;5.30;;;2.80;;
58553;SDS011;48119;53.218;6.576;2022-08-21T16:33:59;9.60;;;2.72;;
58553;SDS011;48119;53.218;6.576;2022-08-21T16:36:26;8.35;;;2.75;;
58553;SDS011;48119;53.218;6.576;2022-08-21T16:38:54;11.00;;;2.53;;
58553;SDS011;48119;53.218;6.576;2022-08-21T16:41:22;7.32;;;2.05;;
58553;SDS011;48119;53.218;6.576;2022-08-21T16:43:50;6.18;;;2.15;;
58553;SDS011;48119;53.218;6.576;2022-08-21T16:46:16;5.40;;;2.13;;
58553;SDS011;48119;53.218;6.576;2022-08-21T16:48:44;6.13;;;2.47;;
58553;SDS011;48119;53.218;6.576;2022-08-21T16:51:12;4.88;;;1.75;;
58553;SDS011;48119;53.218;6.576;2022-08-21T16:53:45;7.80;;;2.40;;
58553;SDS011;48119;53.218;6.576;2022-08-21T16:56:17;6.78;;;2.30;;
58553;SDS011;48119;53.218;6.576;2022-08-21T16:58:53;5.15;;;2.30;;
58553;SDS011;48119;53.218;6.576;2022-08-21T17:01:22;5.95;;;2.38;;
58553;SDS011;48119;53.218;6.576;2022-08-21T17:03:52;5.90;;;2.15;;
58553;SDS011;48119;53.218;6.576;2022-08-21T17:06:19;5.88;;;2.30;;
58553;SDS011;48119;53.218;6.576;2022-08-21T17:08:50;6.53;;;2.33;;
58553;SDS011;48119;53.218;6.576;2022-08-21T17:13:55;5.63;;;2.30;;
58553;SDS011;48119;53.218;6.576;2022-08-21T17:16:23;7.88;;;2.03;;